Terminal Aerodrome Forecast
Issued by NWS

Home | Current Version | Previous Version | Graphics & Text | Print | Product List | Glossary On
Versions: 1 2 3 4 5 6 7 8 9 10 11 12 13 14 15 16 17 18 19 20 21
000
FTUS43 KICT 200720 AAA
TAFHUT
TAF AMD
KHUT 200720Z 2007/2106 16013KT 5SM BR SCT004 BKN008
      TEMPO 2007/2011 2SM BR BKN004
     FM201300 19010KT P6SM BKN100
     FM202200 34010KT P6SM SKC=

USA.gov is the U.S. government's official web portal to all federal, state and local government web resources and services.